createdAt,value
2023-02-14T00:00:10.441Z,15.20
2023-02-14T00:02:38.259Z,16.60
2023-02-14T00:05:06.699Z,17.67
2023-02-14T00:07:34.340Z,17.13
2023-02-14T00:10:02.113Z,15.65
2023-02-14T00:12:29.833Z,20.27
2023-02-14T00:15:15.129Z,17.35
2023-02-14T00:17:44.289Z,18.55
2023-02-14T00:20:12.707Z,18.05
2023-02-14T00:22:40.435Z,17.05
2023-02-14T00:25:08.611Z,17.02
2023-02-14T00:27:36.330Z,17.13
2023-02-14T00:30:04.322Z,17.80
2023-02-14T00:32:32.389Z,16.88
2023-02-14T00:35:01.862Z,16.23
2023-02-14T00:37:29.593Z,16.33
2023-02-14T00:39:57.399Z,15.68
2023-02-14T00:42:25.261Z,16.95
2023-02-14T00:44:52.897Z,17.73
2023-02-14T00:47:20.585Z,16.20
2023-02-14T00:49:48.351Z,17.73
2023-02-14T00:52:17.541Z,17.30
2023-02-14T00:54:45.261Z,16.65
2023-02-14T00:57:13.047Z,15.02
2023-02-14T00:59:40.708Z,17.48
2023-02-14T01:02:08.601Z,16.75
2023-02-14T01:04:36.312Z,15.25
2023-02-14T01:07:04.300Z,15.18
2023-02-14T01:09:33.628Z,16.52
2023-02-14T01:12:01.375Z,16.00
2023-02-14T01:14:29.067Z,16.77
2023-02-14T01:16:56.751Z,14.95
2023-02-14T01:19:24.407Z,15.27
2023-02-14T01:21:52.101Z,16.75
2023-02-14T01:24:19.796Z,18.00
2023-02-14T01:26:48.893Z,16.08
2023-02-14T01:29:16.638Z,16.27
2023-02-14T01:31:44.997Z,17.02
2023-02-14T01:34:12.981Z,15.75
2023-02-14T01:36:41.108Z,16.15
2023-02-14T01:39:13.609Z,16.75
2023-02-14T01:41:44.393Z,17.75
2023-02-14T01:44:45.218Z,16.83
2023-02-14T01:47:15.344Z,15.30
2023-02-14T01:49:46.840Z,15.85
2023-02-14T01:52:19.171Z,17.00
2023-02-14T01:54:53.119Z,16.85
2023-02-14T01:57:23.339Z,16.13
2023-02-14T01:59:55.567Z,15.73
2023-02-14T02:02:24.703Z,15.07
2023-02-14T02:04:57.062Z,16.17
2023-02-14T02:07:26.998Z,15.70
2023-02-14T02:09:57.666Z,15.10
2023-02-14T02:12:25.759Z,15.15
2023-02-14T02:14:56.692Z,15.60
2023-02-14T02:17:33.554Z,17.90
2023-02-14T02:20:33.826Z,18.05
2023-02-14T02:23:37.927Z,15.77
2023-02-14T02:26:38.802Z,16.40
2023-02-14T02:29:26.593Z,16.50
2023-02-14T02:32:28.158Z,17.20
2023-02-14T02:35:21.914Z,16.75
2023-02-14T02:38:01.180Z,17.70
2023-02-14T02:40:42.526Z,15.95
2023-02-14T02:43:21.675Z,17.90
2023-02-14T02:46:12.614Z,16.27
2023-02-14T02:48:45.424Z,16.40
2023-02-14T02:51:39.093Z,15.32
2023-02-14T02:54:15.105Z,17.00
2023-02-14T02:56:51.052Z,18.35
2023-02-14T02:59:23.237Z,17.90
2023-02-14T03:01:56.111Z,17.17
2023-02-14T03:04:41.432Z,17.52
2023-02-14T03:07:24.363Z,17.30
2023-02-14T03:09:54.935Z,16.98
2023-02-14T03:12:42.310Z,16.70
2023-02-14T03:15:18.938Z,18.30
2023-02-14T03:18:00.851Z,17.63
2023-02-14T03:20:41.150Z,16.23
2023-02-14T03:23:17.150Z,17.05
2023-02-14T03:25:51.766Z,17.70
2023-02-14T03:28:23.817Z,17.40
2023-02-14T03:30:59.907Z,15.70
2023-02-14T03:33:33.325Z,16.13
2023-02-14T03:36:04.956Z,16.50
2023-02-14T03:38:42.339Z,17.85
2023-02-14T03:41:15.868Z,16.67
2023-02-14T03:43:47.954Z,16.77
2023-02-14T03:46:21.067Z,16.50
2023-02-14T03:48:52.436Z,16.52
2023-02-14T03:51:22.281Z,15.85
2023-02-14T03:53:56.170Z,15.45
2023-02-14T03:56:31.173Z,16.70
2023-02-14T03:59:06.945Z,17.10
2023-02-14T04:01:40.238Z,17.05
2023-02-14T04:04:10.209Z,17.58
2023-02-14T04:06:38.042Z,17.80
2023-02-14T04:09:07.130Z,18.13
2023-02-14T04:11:35.634Z,16.48
2023-02-14T04:14:03.602Z,16.25
2023-02-14T04:16:51.601Z,18.10
2023-02-14T04:19:24.244Z,18.20
2023-02-14T04:21:52.562Z,17.92
2023-02-14T04:24:21.753Z,17.23
2023-02-14T04:27:10.582Z,17.23
2023-02-14T04:29:39.734Z,17.95
2023-02-14T04:32:08.994Z,19.25
2023-02-14T04:34:37.125Z,18.73
2023-02-14T04:37:04.975Z,20.10
2023-02-14T04:39:34.395Z,18.38
2023-02-14T04:42:02.139Z,18.15
2023-02-14T04:44:29.804Z,19.17
2023-02-14T04:46:57.499Z,18.42
2023-02-14T04:49:25.114Z,20.10
2023-02-14T04:51:53.021Z,20.63
2023-02-14T04:54:20.776Z,18.33
2023-02-14T04:56:49.892Z,20.23
2023-02-14T04:59:17.701Z,19.23
2023-02-14T05:01:45.606Z,22.02
2023-02-14T05:04:13.701Z,19.30
2023-02-14T05:06:41.345Z,20.33
2023-02-14T05:09:09.164Z,21.10
2023-02-14T05:11:36.805Z,20.67
2023-02-14T05:14:05.955Z,20.13
2023-02-14T05:16:33.742Z,22.85
2023-02-14T05:19:01.504Z,21.02
2023-02-14T05:21:33.075Z,21.35
2023-02-14T05:24:00.847Z,19.00
2023-02-14T05:26:29.154Z,19.98
2023-02-14T05:28:57.339Z,18.40
2023-02-14T05:31:26.639Z,19.10
2023-02-14T05:33:54.391Z,19.38
2023-02-14T05:36:22.111Z,20.20
2023-02-14T05:38:49.790Z,19.75
2023-02-14T05:41:17.450Z,20.40
2023-02-14T05:43:45.100Z,19.35
2023-02-14T05:46:13.008Z,21.30
2023-02-14T05:48:42.103Z,20.05
2023-02-14T05:51:11.686Z,20.30
2023-02-14T05:53:39.436Z,21.17
2023-02-14T05:56:07.723Z,21.17
2023-02-14T05:58:35.435Z,21.23
2023-02-14T06:01:03.249Z,21.70
2023-02-14T06:03:31.051Z,21.25
2023-02-14T06:06:00.121Z,21.45
2023-02-14T06:08:27.894Z,22.23
2023-02-14T06:10:55.882Z,22.63
2023-02-14T06:13:24.856Z,23.23
2023-02-14T06:15:52.719Z,22.02
2023-02-14T06:18:20.487Z,23.92
2023-02-14T06:20:48.191Z,22.55
2023-02-14T06:23:17.346Z,21.70
2023-02-14T06:25:45.148Z,21.13
2023-02-14T06:28:12.796Z,26.80
2023-02-14T06:30:40.593Z,22.75
2023-02-14T06:33:08.496Z,24.63
2023-02-14T06:35:36.190Z,22.70
2023-02-14T06:38:03.853Z,25.08
2023-02-14T06:40:32.990Z,23.85
2023-02-14T06:43:00.720Z,24.15
2023-02-14T06:45:28.575Z,23.98
2023-02-14T06:47:56.411Z,23.83
2023-02-14T06:50:24.169Z,23.50
2023-02-14T06:52:51.873Z,22.77
2023-02-14T06:55:20.292Z,23.23
2023-02-14T06:57:49.488Z,24.23
2023-02-14T07:00:17.990Z,23.60
2023-02-14T07:02:46.321Z,21.92
2023-02-14T07:05:15.330Z,22.65
2023-02-14T07:07:43.183Z,22.63
2023-02-14T07:10:11.539Z,21.27
2023-02-14T07:12:40.192Z,20.27
2023-02-14T07:15:11.789Z,18.15
2023-02-14T07:17:40.276Z,19.60
2023-02-14T07:20:09.511Z,20.05
2023-02-14T07:22:38.155Z,20.67
2023-02-14T07:25:06.344Z,18.55
2023-02-14T07:27:34.287Z,19.88
2023-02-14T07:30:02.015Z,19.38
2023-02-14T07:32:31.357Z,19.60
2023-02-14T07:34:59.108Z,19.25
2023-02-14T07:37:26.851Z,20.95
2023-02-14T07:39:54.538Z,20.73
2023-02-14T07:42:22.294Z,22.00
2023-02-14T07:44:49.940Z,20.15
2023-02-14T07:47:17.659Z,19.95
2023-02-14T07:49:46.737Z,18.88
2023-02-14T07:52:14.464Z,19.13
2023-02-14T07:54:42.231Z,18.42
2023-02-14T07:57:10.105Z,20.50
2023-02-14T07:59:37.810Z,20.58
2023-02-14T08:02:05.485Z,22.20
2023-02-14T08:04:33.991Z,21.60
2023-02-14T08:07:03.145Z,21.02
2023-02-14T08:09:31.014Z,21.38
2023-02-14T08:12:17.545Z,21.30
2023-02-14T08:14:45.517Z,19.58
2023-02-14T08:17:13.934Z,19.80
2023-02-14T08:19:42.120Z,21.23
2023-02-14T08:22:11.230Z,21.80
2023-02-14T08:24:38.987Z,21.20
2023-02-14T08:27:06.738Z,21.90
2023-02-14T08:29:34.557Z,22.30
2023-02-14T08:32:02.490Z,19.60
2023-02-14T08:34:30.301Z,20.25
2023-02-14T08:36:57.912Z,19.42
2023-02-14T08:39:27.131Z,17.17
2023-02-14T08:41:54.857Z,16.05
2023-02-14T08:44:22.510Z,16.80
2023-02-14T08:46:50.306Z,15.73
2023-02-14T08:49:18.188Z,15.23
2023-02-14T08:51:46.058Z,15.40
2023-02-14T08:54:14.122Z,16.73
2023-02-14T08:56:43.382Z,16.48
2023-02-14T08:59:11.100Z,14.27
2023-02-14T09:01:39.011Z,16.25
2023-02-14T09:04:06.911Z,16.17
2023-02-14T09:06:34.638Z,15.10
2023-02-14T09:09:02.730Z,15.40
2023-02-14T09:24:48.958Z,14.17
2023-02-14T09:27:16.745Z,14.40
2023-02-14T09:29:44.700Z,16.97
2023-02-14T09:32:12.564Z,15.60
2023-02-14T09:34:40.429Z,16.47
2023-02-14T09:37:25.863Z,16.23
2023-02-14T09:39:55.013Z,15.97
2023-02-14T09:42:42.409Z,15.60
2023-02-14T09:45:14.182Z,15.27
2023-02-14T09:47:48.409Z,15.93
2023-02-14T09:50:23.552Z,16.50
2023-02-14T09:52:57.236Z,15.33
2023-02-14T09:55:30.966Z,15.50
2023-02-14T09:58:06.938Z,14.93
2023-02-14T10:00:39.036Z,16.07
2023-02-14T10:03:32.895Z,16.00
2023-02-14T10:06:05.627Z,14.83
2023-02-14T10:08:48.267Z,16.10
2023-02-14T10:11:22.140Z,15.83
2023-02-14T10:13:53.142Z,15.13
2023-02-14T10:16:27.211Z,14.47
2023-02-14T10:19:01.516Z,14.33
2023-02-14T10:21:34.631Z,15.13
2023-02-14T10:24:10.567Z,16.90
2023-02-14T10:26:41.759Z,19.03
2023-02-14T10:29:15.564Z,19.00
2023-02-14T10:31:55.531Z,17.50
2023-02-14T10:34:30.782Z,16.50
2023-02-14T10:37:19.938Z,15.03
2023-02-14T10:40:06.117Z,17.30
2023-02-14T10:42:44.169Z,16.60
2023-02-14T10:45:22.758Z,16.50
2023-02-14T10:47:57.419Z,17.00
2023-02-14T10:50:31.952Z,15.63
2023-02-14T10:53:15.167Z,15.13
2023-02-14T10:55:48.476Z,16.13
2023-02-14T10:58:20.939Z,16.17
2023-02-14T11:00:56.473Z,14.80
2023-02-14T11:03:25.275Z,14.90
2023-02-14T11:05:53.060Z,16.90
2023-02-14T11:08:26.892Z,15.20
2023-02-14T11:10:56.542Z,16.03
2023-02-14T11:13:34.796Z,15.50
2023-02-14T11:16:05.588Z,15.83
2023-02-14T11:18:36.043Z,15.50
2023-02-14T11:21:07.478Z,15.63
2023-02-14T11:23:37.482Z,15.83
2023-02-14T11:26:08.494Z,14.90
2023-02-14T11:28:44.484Z,14.33
2023-02-14T11:31:12.315Z,13.63
2023-02-14T11:33:42.302Z,15.77
2023-02-14T11:36:13.407Z,15.10
2023-02-14T11:38:43.269Z,14.53
2023-02-14T11:41:14.854Z,16.87
2023-02-14T11:43:45.375Z,14.50
2023-02-14T11:46:25.703Z,15.30
2023-02-14T11:48:59.845Z,16.13
2023-02-14T11:51:34.797Z,15.30
2023-02-14T11:54:06.062Z,16.10
2023-02-14T11:56:47.859Z,15.07
2023-02-14T11:59:28.408Z,17.63
2023-02-14T12:01:58.921Z,15.70
2023-02-14T12:04:38.166Z,15.30
2023-02-14T12:07:19.076Z,14.82
2023-02-14T12:09:47.974Z,14.40
2023-02-14T12:12:23.312Z,16.15
2023-02-14T12:14:52.436Z,15.43
2023-02-14T12:17:30.528Z,15.63
2023-02-14T12:20:05.011Z,15.15
2023-02-14T12:22:38.676Z,14.63
2023-02-14T12:25:15.459Z,15.80
2023-02-14T12:27:49.568Z,15.15
2023-02-14T12:30:22.473Z,14.13
2023-02-14T12:32:52.282Z,14.65
2023-02-14T12:35:41.365Z,14.48
2023-02-14T12:38:18.273Z,14.25
2023-02-14T12:40:57.472Z,13.80
2023-02-14T12:43:45.724Z,14.85
2023-02-14T12:49:41.180Z,15.00
2023-02-14T12:52:23.335Z,15.52
2023-02-14T12:55:07.234Z,15.00
2023-02-14T12:57:45.350Z,14.73
2023-02-14T13:00:25.231Z,14.85
2023-02-14T13:03:20.223Z,15.95
2023-02-14T13:05:59.379Z,15.85
2023-02-14T13:08:49.865Z,15.18
2023-02-14T13:11:30.291Z,16.58
2023-02-14T13:14:11.181Z,14.98
2023-02-14T13:16:48.091Z,15.63
2023-02-14T13:19:33.290Z,15.70
2023-02-14T13:22:02.470Z,17.40
2023-02-14T13:24:39.166Z,15.50
2023-02-14T13:27:10.784Z,16.13
2023-02-14T13:29:46.269Z,15.48
2023-02-14T13:32:18.080Z,15.50
2023-02-14T13:34:48.807Z,15.85
2023-02-14T13:37:19.598Z,15.23
2023-02-14T13:39:51.498Z,16.65
2023-02-14T13:42:51.638Z,16.23
2023-02-14T13:45:54.511Z,17.05
2023-02-14T13:48:25.998Z,16.65
2023-02-14T13:50:58.421Z,15.05
2023-02-14T13:53:35.044Z,16.25
2023-02-14T13:56:05.123Z,16.67
2023-02-14T13:58:33.629Z,17.50
2023-02-14T14:01:39.758Z,15.40
2023-02-14T14:04:36.800Z,16.35
2023-02-14T14:07:20.956Z,16.00
2023-02-14T14:09:56.906Z,17.40
2023-02-14T14:12:41.792Z,17.77
2023-02-14T14:15:18.522Z,16.38
2023-02-14T14:17:50.281Z,16.88
2023-02-14T14:20:48.987Z,16.55
2023-02-14T14:23:40.571Z,18.55
2023-02-14T14:26:37.170Z,16.83
2023-02-14T14:29:12.290Z,15.38
2023-02-14T14:31:42.272Z,17.17
2023-02-14T14:34:17.709Z,18.02
2023-02-14T14:36:47.163Z,17.35
2023-02-14T14:39:27.789Z,16.58
2023-02-14T14:41:56.026Z,15.45
2023-02-14T14:44:25.741Z,17.90
2023-02-14T14:46:53.676Z,17.33
2023-02-14T14:49:22.568Z,15.85
2023-02-14T14:51:51.851Z,15.10
2023-02-14T14:54:21.896Z,15.85
2023-02-14T14:56:52.885Z,16.85
2023-02-14T14:59:30.417Z,16.98
2023-02-14T15:01:58.148Z,16.88
2023-02-14T15:04:28.686Z,17.67
2023-02-14T15:06:59.283Z,18.42
2023-02-14T15:09:33.633Z,16.42
2023-02-14T15:12:21.647Z,16.30
2023-02-14T15:14:54.576Z,16.70
2023-02-14T15:17:26.137Z,17.77
2023-02-14T15:19:57.500Z,17.67
2023-02-14T15:22:29.580Z,17.30
2023-02-14T15:24:58.894Z,18.15
2023-02-14T15:27:28.795Z,17.33
2023-02-14T15:30:01.494Z,18.20
2023-02-14T15:32:33.385Z,17.50
2023-02-14T15:35:04.667Z,18.73
2023-02-14T15:37:34.718Z,18.08
2023-02-14T15:40:03.628Z,18.15
2023-02-14T15:42:33.737Z,18.73
2023-02-14T15:45:23.774Z,17.92
2023-02-14T15:47:53.743Z,17.75
2023-02-14T15:50:25.222Z,18.85
2023-02-14T15:52:56.790Z,18.25
2023-02-14T15:55:27.508Z,18.52
2023-02-14T15:57:57.950Z,18.20
2023-02-14T16:00:26.781Z,18.48
2023-02-14T16:02:57.557Z,17.45
2023-02-14T16:05:27.426Z,18.40
2023-02-14T16:08:03.484Z,18.48
2023-02-14T16:10:33.753Z,17.73
2023-02-14T16:13:06.496Z,18.02
2023-02-14T16:15:36.632Z,18.02
2023-02-14T16:18:17.387Z,18.60
2023-02-14T16:20:47.070Z,19.92
2023-02-14T16:23:24.386Z,18.42
2023-02-14T16:25:53.223Z,17.60
2023-02-14T16:28:22.006Z,19.13
2023-02-14T16:30:55.967Z,20.40
2023-02-14T16:33:26.508Z,19.40
2023-02-14T16:35:55.008Z,21.58
2023-02-14T16:38:24.112Z,20.55
2023-02-14T16:40:55.083Z,18.65
2023-02-14T16:43:23.076Z,18.52
2023-02-14T16:45:50.861Z,18.40
2023-02-14T16:48:18.620Z,17.23
2023-02-14T16:50:47.497Z,18.85
2023-02-14T16:53:28.198Z,18.45
2023-02-14T16:55:58.191Z,18.23
2023-02-14T16:58:33.005Z,19.55
2023-02-14T17:01:01.029Z,19.40
2023-02-14T17:03:29.001Z,19.48
2023-02-14T17:05:58.987Z,19.95
2023-02-14T17:08:29.244Z,19.40
2023-02-14T17:11:01.441Z,20.15
2023-02-14T17:13:33.472Z,19.70
2023-02-14T17:16:01.871Z,20.15
2023-02-14T17:18:32.910Z,20.90
2023-02-14T17:21:01.676Z,18.40
2023-02-14T17:23:30.965Z,19.10
2023-02-14T17:25:58.660Z,19.80
2023-02-14T17:28:26.686Z,21.25
2023-02-14T17:30:54.904Z,18.63
2023-02-14T17:33:22.934Z,21.10
2023-02-14T17:35:51.023Z,19.63
2023-02-14T17:38:20.265Z,19.90
2023-02-14T17:40:49.333Z,21.77
2023-02-14T17:43:17.093Z,22.38
2023-02-14T17:45:44.786Z,20.35
2023-02-14T17:48:12.471Z,20.23
2023-02-14T17:50:40.185Z,20.02
2023-02-14T17:53:09.336Z,19.90
2023-02-14T17:55:37.732Z,20.73
2023-02-14T17:58:06.782Z,19.25
2023-02-14T18:00:34.856Z,21.42
2023-02-14T18:03:02.710Z,20.33
2023-02-14T18:05:30.558Z,21.02
2023-02-14T18:07:58.881Z,22.02
2023-02-14T18:10:26.600Z,20.02
2023-02-14T18:12:54.436Z,20.38
2023-02-14T18:15:23.664Z,21.13
2023-02-14T18:17:51.576Z,21.65
2023-02-14T18:20:19.690Z,20.73
2023-02-14T18:22:47.449Z,20.65
2023-02-14T18:25:15.172Z,20.38
2023-02-14T18:27:42.897Z,18.63
2023-02-14T18:30:11.344Z,20.27
2023-02-14T18:32:40.428Z,18.30
2023-02-14T18:35:08.858Z,21.25
2023-02-14T18:37:36.706Z,20.25
2023-02-14T18:40:04.520Z,20.38
2023-02-14T18:42:32.178Z,20.08
2023-02-14T18:44:59.816Z,18.70
2023-02-14T18:47:27.498Z,19.90
2023-02-14T18:49:56.656Z,21.20
2023-02-14T18:52:25.149Z,20.58
2023-02-14T18:54:53.317Z,20.33
2023-02-14T18:57:21.115Z,21.48
2023-02-14T18:59:48.846Z,21.63
2023-02-14T19:02:16.730Z,21.52
2023-02-14T19:04:44.511Z,22.20
2023-02-14T19:07:13.695Z,20.23
2023-02-14T19:09:43.054Z,20.83
2023-02-14T19:12:11.730Z,20.48
2023-02-14T19:14:39.518Z,20.20
2023-02-14T19:17:07.285Z,20.80
2023-02-14T19:19:35.966Z,20.80
2023-02-14T19:22:03.761Z,21.63
2023-02-14T19:24:33.045Z,20.25
2023-02-14T19:27:00.816Z,20.00
2023-02-14T19:29:28.898Z,19.27
2023-02-14T19:31:56.867Z,19.55
2023-02-14T19:34:29.179Z,21.90
2023-02-14T19:36:59.583Z,20.73
2023-02-14T19:39:29.511Z,21.02
2023-02-14T19:41:59.816Z,18.73
2023-02-14T19:44:29.224Z,19.38
2023-02-14T19:47:00.051Z,21.63
2023-02-14T19:49:29.875Z,20.15
2023-02-14T19:51:58.065Z,19.90
2023-02-14T19:54:25.835Z,19.63
2023-02-14T19:56:56.114Z,19.40
2023-02-14T19:59:25.447Z,19.30
2023-02-14T20:01:54.523Z,20.05
2023-02-14T20:04:24.534Z,19.30
2023-02-14T20:06:53.222Z,18.30
2023-02-14T20:09:22.844Z,19.30
2023-02-14T20:11:52.171Z,21.35
2023-02-14T20:14:21.896Z,20.08
2023-02-14T20:16:51.422Z,21.35
2023-02-14T20:19:22.891Z,20.42
2023-02-14T20:21:52.565Z,20.85
2023-02-14T20:24:23.886Z,19.63
2023-02-14T20:26:54.306Z,20.02
2023-02-14T20:29:24.265Z,20.88
2023-02-14T20:31:58.075Z,19.55
2023-02-14T20:34:26.752Z,18.73
2023-02-14T20:36:55.976Z,19.70
2023-02-14T20:39:28.923Z,20.05
2023-02-14T20:41:56.677Z,20.98
2023-02-14T20:44:24.713Z,20.75
2023-02-14T20:46:57.301Z,22.13
2023-02-14T20:49:26.593Z,19.35
2023-02-14T20:51:54.494Z,20.30
2023-02-14T20:54:24.825Z,19.77
2023-02-14T20:56:54.001Z,20.17
2023-02-14T20:59:26.985Z,21.25
2023-02-14T21:01:57.408Z,21.23
2023-02-14T21:04:26.558Z,21.77
2023-02-14T21:06:55.177Z,21.50
2023-02-14T21:09:22.965Z,22.13
2023-02-14T21:11:54.110Z,19.40
2023-02-14T21:14:22.641Z,19.92
2023-02-14T21:16:51.682Z,21.23
2023-02-14T21:19:20.854Z,19.65
2023-02-14T21:21:49.177Z,20.70
2023-02-14T21:24:17.757Z,20.27
2023-02-14T21:26:46.097Z,21.73
2023-02-14T21:29:14.350Z,20.77
2023-02-14T21:31:43.128Z,20.55
2023-02-14T21:34:11.467Z,21.13
2023-02-14T21:36:41.287Z,21.52
2023-02-14T21:39:09.689Z,20.92
2023-02-14T21:41:38.379Z,19.92
2023-02-14T21:44:07.552Z,22.15
2023-02-14T21:46:41.076Z,20.60
2023-02-14T21:49:30.235Z,20.40
2023-02-14T21:51:59.427Z,20.30
2023-02-14T21:54:28.145Z,20.48
2023-02-14T21:56:57.894Z,22.38
2023-02-14T21:59:26.290Z,21.95
2023-02-14T22:01:54.072Z,22.50
2023-02-14T22:04:21.861Z,22.20
2023-02-14T22:06:49.811Z,23.38
2023-02-14T22:09:19.670Z,22.88
2023-02-14T22:11:48.634Z,22.60
2023-02-14T22:14:19.285Z,22.33
2023-02-14T22:16:47.230Z,22.73
2023-02-14T22:19:16.863Z,22.10
2023-02-14T22:21:47.620Z,22.50
2023-02-14T22:24:15.772Z,22.42
2023-02-14T22:26:45.154Z,23.70
2023-02-14T22:29:15.550Z,23.00
2023-02-14T22:31:46.347Z,21.63
2023-02-14T22:34:17.907Z,21.10
2023-02-14T22:36:45.756Z,20.35
2023-02-14T22:39:15.185Z,21.13
2023-02-14T22:41:44.517Z,21.98
2023-02-14T22:44:15.045Z,20.05
2023-02-14T22:46:43.745Z,20.73
2023-02-14T22:49:11.679Z,21.20
2023-02-14T22:51:41.594Z,20.67
2023-02-14T22:54:12.300Z,20.63
2023-02-14T22:56:42.207Z,21.50
2023-02-14T22:59:17.284Z,20.15
2023-02-14T23:01:45.217Z,21.42
2023-02-14T23:04:13.377Z,21.92
2023-02-14T23:06:41.181Z,21.27
2023-02-14T23:09:11.622Z,21.85
2023-02-14T23:11:44.286Z,20.88
2023-02-14T23:14:32.451Z,21.05
2023-02-14T23:17:20.482Z,21.23
2023-02-14T23:20:06.678Z,20.58
2023-02-14T23:22:36.307Z,21.05
2023-02-14T23:25:07.069Z,21.50
2023-02-14T23:27:36.790Z,20.65
2023-02-14T23:30:08.770Z,21.33
2023-02-14T23:32:36.760Z,21.85
2023-02-14T23:35:04.917Z,20.88
2023-02-14T23:37:33.507Z,22.50
2023-02-14T23:40:01.228Z,19.83
2023-02-14T23:42:29.565Z,20.95
2023-02-14T23:45:17.831Z,18.52
2023-02-14T23:47:47.204Z,19.25
2023-02-14T23:50:15.832Z,18.25
2023-02-14T23:52:44.957Z,20.13
2023-02-14T23:55:13.778Z,20.75
2023-02-14T23:57:42.076Z,20.98
